createdAt,value
2016-03-27T00:00:25.659Z,0
2016-03-27T00:01:25.957Z,0
2016-03-27T00:02:25.647Z,0
2016-03-27T00:03:25.666Z,0
2016-03-27T00:04:25.716Z,0
2016-03-27T00:05:25.686Z,0
2016-03-27T00:06:25.705Z,0
2016-03-27T00:07:25.724Z,0
2016-03-27T00:08:25.602Z,0
2016-03-27T00:09:25.604Z,0
2016-03-27T00:10:25.747Z,0
2016-03-27T00:11:25.782Z,0
2016-03-27T00:12:25.768Z,0
2016-03-27T00:13:25.787Z,0
2016-03-27T00:14:25.804Z,0
2016-03-27T00:15:25.823Z,0
2016-03-27T00:16:26.356Z,0
2016-03-27T00:17:25.823Z,0
2016-03-27T00:18:25.811Z,0
2016-03-27T00:19:25.814Z,0
2016-03-27T00:20:25.817Z,0
2016-03-27T00:21:25.821Z,0
2016-03-27T00:22:25.843Z,0
2016-03-27T00:23:25.840Z,0
2016-03-27T00:24:25.838Z,0
2016-03-27T00:25:25.835Z,0
2016-03-27T00:26:25.816Z,0
2016-03-27T00:27:25.847Z,0
2016-03-27T00:28:25.831Z,0
2016-03-27T00:29:25.848Z,0
2016-03-27T00:30:25.879Z,0
2016-03-27T00:31:26.286Z,0
2016-03-27T00:32:25.880Z,0
2016-03-27T00:33:25.726Z,0
2016-03-27T00:34:25.899Z,0
2016-03-27T00:35:25.901Z,0
2016-03-27T00:36:25.934Z,0
2016-03-27T00:37:25.952Z,0
2016-03-27T00:38:25.955Z,0
2016-03-27T00:39:25.958Z,0
2016-03-27T00:40:25.976Z,0
2016-03-27T00:41:25.979Z,0
2016-03-27T00:42:26.043Z,0
2016-03-27T00:43:26.016Z,0
2016-03-27T00:44:26.018Z,0
2016-03-27T00:45:26.020Z,0
2016-03-27T00:46:26.242Z,0
2016-03-27T00:47:26.042Z,0
2016-03-27T00:48:26.045Z,0
2016-03-27T00:49:26.062Z,0
2016-03-27T00:50:26.081Z,0
2016-03-27T00:51:26.084Z,0
2016-03-27T00:52:26.228Z,0
2016-03-27T00:53:26.120Z,0
2016-03-27T00:54:26.122Z,0
2016-03-27T00:55:26.142Z,0
2016-03-27T00:56:26.144Z,0
2016-03-27T00:57:26.147Z,0
2016-03-27T00:58:26.181Z,0
2016-03-27T00:59:26.168Z,0
2016-03-27T01:00:26.202Z,0
2016-03-27T01:01:26.392Z,0
2016-03-27T01:02:26.191Z,0
2016-03-27T01:03:26.210Z,0
2016-03-27T01:04:26.057Z,0
2016-03-27T01:05:26.230Z,0
2016-03-27T01:06:26.266Z,0
2016-03-27T01:07:26.127Z,0
2016-03-27T01:08:26.274Z,0
2016-03-27T01:09:26.308Z,0
2016-03-27T01:10:26.311Z,0
2016-03-27T01:11:26.313Z,0
2016-03-27T01:12:26.332Z,0
2016-03-27T01:13:26.475Z,0
2016-03-27T01:14:26.321Z,0
2016-03-27T01:15:26.340Z,0
2016-03-27T01:16:26.374Z,0
2016-03-27T01:17:26.376Z,0
2016-03-27T01:18:26.380Z,0
2016-03-27T01:19:26.429Z,0
2016-03-27T01:20:26.432Z,0
2016-03-27T01:21:26.435Z,0
2016-03-27T01:22:26.452Z,0
2016-03-27T01:23:26.424Z,0
2016-03-27T01:24:26.443Z,0
2016-03-27T01:25:26.304Z,0
2016-03-27T01:26:26.462Z,0
2016-03-27T01:27:26.466Z,0
2016-03-27T01:28:26.468Z,0
2016-03-27T01:29:26.502Z,0
2016-03-27T01:30:26.505Z,0
2016-03-27T01:31:26.507Z,0
2016-03-27T01:32:26.526Z,0
2016-03-27T01:33:26.529Z,0
2016-03-27T01:34:26.687Z,0
2016-03-27T01:35:26.612Z,0
2016-03-27T01:36:26.584Z,0
2016-03-27T01:37:26.602Z,0
2016-03-27T01:38:26.605Z,0
2016-03-27T01:39:26.608Z,0
2016-03-27T01:40:26.626Z,0
2016-03-27T01:41:26.629Z,0
2016-03-27T01:42:26.647Z,0
2016-03-27T01:43:26.633Z,0
2016-03-27T01:44:26.496Z,0
2016-03-27T01:45:26.655Z,0
2016-03-27T01:46:26.658Z,0
2016-03-27T01:47:26.691Z,0
2016-03-27T01:48:26.694Z,0
2016-03-27T01:49:26.760Z,0
2016-03-27T01:50:26.747Z,0
2016-03-27T01:51:26.749Z,0
2016-03-27T01:52:26.752Z,0
2016-03-27T01:53:26.755Z,0
2016-03-27T01:54:26.773Z,0
2016-03-27T01:55:26.807Z,0
2016-03-27T01:56:26.825Z,0
2016-03-27T01:57:26.781Z,0
2016-03-27T01:58:26.799Z,0
2016-03-27T01:59:26.802Z,0
2016-03-27T02:00:26.960Z,0
2016-03-27T02:01:26.823Z,0
2016-03-27T02:02:26.857Z,0
2016-03-27T02:03:26.890Z,0
2016-03-27T02:04:26.879Z,0
2016-03-27T02:05:26.881Z,0
2016-03-27T02:06:26.899Z,0
2016-03-27T02:07:30.146Z,0
2016-03-27T02:08:26.443Z,0
2016-03-27T02:09:27.320Z,0
2016-03-27T02:10:28.068Z,0
2016-03-27T02:11:26.946Z,0
2016-03-27T02:12:26.933Z,0
2016-03-27T02:13:26.937Z,0
2016-03-27T02:14:26.845Z,0
2016-03-27T02:15:26.988Z,0
2016-03-27T02:16:26.991Z,0
2016-03-27T02:17:27.212Z,0
2016-03-27T02:18:27.012Z,0
2016-03-27T02:19:27.031Z,0
2016-03-27T02:20:27.049Z,0
2016-03-27T02:21:27.052Z,0
2016-03-27T02:22:27.101Z,0
2016-03-27T02:23:27.072Z,0
2016-03-27T02:24:27.074Z,0
2016-03-27T02:25:27.093Z,0
2016-03-27T02:26:27.096Z,0
2016-03-27T02:27:27.114Z,0
2016-03-27T02:28:27.117Z,0
2016-03-27T02:29:27.119Z,0
2016-03-27T02:30:27.122Z,0
2016-03-27T02:31:27.141Z,0
2016-03-27T02:32:27.159Z,0
2016-03-27T02:33:27.177Z,0
2016-03-27T02:34:27.179Z,0
2016-03-27T02:35:27.215Z,0
2016-03-27T02:36:27.232Z,0
2016-03-27T02:37:27.235Z,0
2016-03-27T02:38:27.207Z,0
2016-03-27T02:39:27.209Z,0
2016-03-27T02:40:27.306Z,0
2016-03-27T02:41:27.246Z,0
2016-03-27T02:42:27.248Z,0
2016-03-27T02:43:27.267Z,0
2016-03-27T02:44:27.284Z,0
2016-03-27T02:45:27.272Z,0
2016-03-27T02:46:27.290Z,0
2016-03-27T02:47:27.309Z,0
2016-03-27T02:48:27.327Z,0
2016-03-27T02:49:27.345Z,0
2016-03-27T02:50:27.364Z,0
2016-03-27T02:51:27.366Z,0
2016-03-27T02:52:27.353Z,0
2016-03-27T02:53:27.372Z,0
2016-03-27T02:54:27.358Z,0
2016-03-27T02:55:27.393Z,0
2016-03-27T02:56:27.411Z,0
2016-03-27T02:57:27.398Z,0
2016-03-27T02:58:27.417Z,0
2016-03-27T02:59:27.419Z,0
2016-03-27T03:00:27.421Z,0
2016-03-27T03:01:27.425Z,0
2016-03-27T03:02:27.443Z,0
2016-03-27T03:03:27.477Z,0
2016-03-27T03:04:27.496Z,0
2016-03-27T03:05:27.482Z,0
2016-03-27T03:06:27.501Z,0
2016-03-27T03:07:27.519Z,0
2016-03-27T03:08:27.521Z,0
2016-03-27T03:09:27.539Z,0
2016-03-27T03:10:27.527Z,0
2016-03-27T03:11:27.529Z,0
2016-03-27T03:12:27.564Z,0
2016-03-27T03:13:27.551Z,0
2016-03-27T03:14:27.569Z,0
2016-03-27T03:15:27.587Z,0
2016-03-27T03:16:27.606Z,0
2016-03-27T03:17:27.608Z,0
2016-03-27T03:18:27.626Z,0
2016-03-27T03:19:27.629Z,0
2016-03-27T03:20:27.631Z,0
2016-03-27T03:21:27.651Z,0
2016-03-27T03:22:27.637Z,0
2016-03-27T03:23:27.655Z,0
2016-03-27T03:24:27.659Z,0
2016-03-27T03:25:27.692Z,0
2016-03-27T03:26:27.695Z,0
2016-03-27T03:27:27.697Z,0
2016-03-27T03:28:27.716Z,0
2016-03-27T03:29:27.718Z,0
2016-03-27T03:30:27.722Z,0
2016-03-27T03:31:27.755Z,0
2016-03-27T03:32:27.757Z,0
2016-03-27T03:33:27.777Z,0
2016-03-27T03:34:27.763Z,0
2016-03-27T03:35:27.796Z,0
2016-03-27T03:36:27.800Z,0
2016-03-27T03:37:27.802Z,0
2016-03-27T03:38:27.805Z,0
2016-03-27T03:39:27.824Z,0
2016-03-27T03:40:27.826Z,0
2016-03-27T03:41:27.845Z,0
2016-03-27T03:42:27.848Z,0
2016-03-27T03:43:27.865Z,0
2016-03-27T03:44:27.884Z,0
2016-03-27T03:45:27.871Z,0
2016-03-27T03:46:27.889Z,0
2016-03-27T03:47:28.673Z,0
2016-03-27T03:48:27.911Z,0
2016-03-27T03:49:27.913Z,0
2016-03-27T03:50:27.916Z,0
2016-03-27T03:51:27.934Z,0
2016-03-27T03:52:27.936Z,0
2016-03-27T03:53:27.955Z,0
2016-03-27T03:54:27.958Z,0
2016-03-27T03:55:27.975Z,0
2016-03-27T03:56:28.011Z,0
2016-03-27T03:57:28.013Z,0
2016-03-27T03:58:28.031Z,0
2016-03-27T03:59:28.018Z,0
2016-03-27T04:00:28.021Z,0
2016-03-27T04:01:28.039Z,0
2016-03-27T04:02:28.088Z,0
2016-03-27T04:03:28.060Z,0
2016-03-27T04:04:28.063Z,0
2016-03-27T04:05:28.066Z,0
2016-03-27T04:06:28.068Z,0
2016-03-27T04:07:27.948Z,0
2016-03-27T04:08:28.091Z,0
2016-03-27T04:09:28.094Z,0
2016-03-27T04:10:28.112Z,0
2016-03-27T04:11:28.114Z,0
2016-03-27T04:12:28.133Z,0
2016-03-27T04:13:28.151Z,0
2016-03-27T04:14:28.154Z,0
2016-03-27T04:15:28.172Z,0
2016-03-27T04:16:28.175Z,0
2016-03-27T04:17:28.428Z,0
2016-03-27T04:18:28.197Z,0
2016-03-27T04:19:28.214Z,0
2016-03-27T04:20:28.201Z,0
2016-03-27T04:21:28.236Z,0
2016-03-27T04:22:28.222Z,0
2016-03-27T04:23:28.225Z,0
2016-03-27T04:24:28.260Z,0
2016-03-27T04:25:28.246Z,0
2016-03-27T04:26:28.265Z,0
2016-03-27T04:27:28.283Z,0
2016-03-27T04:28:28.285Z,0
2016-03-27T04:29:28.303Z,0
2016-03-27T04:30:28.291Z,0
2016-03-27T04:31:28.309Z,0
2016-03-27T04:32:28.812Z,0
2016-03-27T04:33:28.330Z,0
2016-03-27T04:34:28.332Z,0
2016-03-27T04:35:28.367Z,0
2016-03-27T04:36:28.354Z,0
2016-03-27T04:37:28.388Z,0
2016-03-27T04:38:28.375Z,0
2016-03-27T04:39:28.393Z,0
2016-03-27T04:40:28.395Z,0
2016-03-27T04:41:28.399Z,0
2016-03-27T04:42:28.433Z,0
2016-03-27T04:43:28.419Z,0
2016-03-27T04:44:28.438Z,0
2016-03-27T04:45:28.425Z,0
2016-03-27T04:46:28.459Z,0
2016-03-27T04:47:29.149Z,0
2016-03-27T04:48:28.464Z,0
2016-03-27T04:49:28.498Z,0
2016-03-27T04:50:28.500Z,0
2016-03-27T04:51:28.472Z,0
2016-03-27T04:52:28.335Z,0
2016-03-27T04:53:28.524Z,0
2016-03-27T04:54:28.527Z,0
2016-03-27T04:55:28.530Z,0
2016-03-27T04:56:28.532Z,0
2016-03-27T04:57:28.551Z,0
2016-03-27T04:58:28.569Z,0
2016-03-27T04:59:28.587Z,0
2016-03-27T05:00:28.574Z,0
2016-03-27T05:01:28.593Z,0
2016-03-27T05:02:29.361Z,0
2016-03-27T05:03:28.629Z,0
2016-03-27T05:04:28.632Z,5
2016-03-27T05:05:28.634Z,5
2016-03-27T05:06:28.638Z,5
2016-03-27T05:07:28.640Z,5
2016-03-27T05:08:28.643Z,5
2016-03-27T05:09:28.677Z,5
2016-03-27T05:10:28.695Z,5
2016-03-27T05:11:28.714Z,5
2016-03-27T05:12:28.700Z,5
2016-03-27T05:13:28.703Z,10
2016-03-27T05:14:28.689Z,10
2016-03-27T05:15:28.553Z,10
2016-03-27T05:16:28.727Z,10
2016-03-27T05:17:28.855Z,10
2016-03-27T05:18:28.780Z,10
2016-03-27T05:19:28.750Z,15
2016-03-27T05:20:28.738Z,15
2016-03-27T05:21:28.756Z,15
2016-03-27T05:22:28.774Z,15
2016-03-27T05:23:28.777Z,15
2016-03-27T05:24:28.796Z,15
2016-03-27T05:25:28.829Z,15
2016-03-27T05:26:28.833Z,20
2016-03-27T05:27:28.679Z,20
2016-03-27T05:28:28.837Z,20
2016-03-27T05:29:28.841Z,20
2016-03-27T05:30:28.858Z,20
2016-03-27T05:31:28.860Z,20
2016-03-27T05:32:29.348Z,20
2016-03-27T05:33:28.866Z,25
2016-03-27T05:34:28.885Z,25
2016-03-27T05:35:28.888Z,25
2016-03-27T05:36:28.906Z,25
2016-03-27T05:37:28.908Z,30
2016-03-27T05:38:28.912Z,30
2016-03-27T05:39:28.961Z,30
2016-03-27T05:40:28.963Z,30
2016-03-27T05:41:28.967Z,30
2016-03-27T05:42:28.969Z,30
2016-03-27T05:43:28.972Z,30
2016-03-27T05:44:29.006Z,35
2016-03-27T05:45:29.023Z,35
2016-03-27T05:46:29.011Z,35
2016-03-27T05:47:29.278Z,35
2016-03-27T05:48:29.031Z,35
2016-03-27T05:49:29.019Z,35
2016-03-27T05:50:29.037Z,35
2016-03-27T05:51:29.039Z,35
2016-03-27T05:52:29.059Z,35
2016-03-27T05:53:29.061Z,35
2016-03-27T05:54:29.094Z,35
2016-03-27T05:55:29.082Z,35
2016-03-27T05:56:29.085Z,40
2016-03-27T05:57:29.102Z,40
2016-03-27T05:58:29.121Z,40
2016-03-27T05:59:29.155Z,40
2016-03-27T06:00:29.142Z,40
2016-03-27T06:01:29.161Z,40
2016-03-27T06:02:29.835Z,40
2016-03-27T06:03:29.165Z,40
2016-03-27T06:04:29.169Z,40
2016-03-27T06:05:29.187Z,40
2016-03-27T06:06:29.189Z,40
2016-03-27T06:07:29.208Z,40
2016-03-27T06:08:29.226Z,40
2016-03-27T06:09:29.229Z,40
2016-03-27T06:10:29.248Z,45
2016-03-27T06:11:29.250Z,45
2016-03-27T06:12:29.268Z,45
2016-03-27T06:13:29.271Z,45
2016-03-27T06:14:29.305Z,45
2016-03-27T06:15:29.291Z,45
2016-03-27T06:16:29.123Z,45
2016-03-27T06:17:29.313Z,45
2016-03-27T06:18:29.316Z,50
2016-03-27T06:19:29.319Z,50
2016-03-27T06:20:29.180Z,50
2016-03-27T06:21:29.370Z,50
2016-03-27T06:22:29.358Z,55
2016-03-27T06:23:29.391Z,60
2016-03-27T06:24:29.394Z,70
2016-03-27T06:25:29.381Z,130
2016-03-27T06:26:29.415Z,285
2016-03-27T06:27:29.387Z,330
2016-03-27T06:28:29.421Z,405
2016-03-27T06:29:29.423Z,435
2016-03-27T06:30:29.442Z,400
2016-03-27T06:31:29.476Z,550
2016-03-27T06:32:29.540Z,665
2016-03-27T06:33:29.466Z,615
2016-03-27T06:34:29.499Z,535
2016-03-27T06:35:29.502Z,310
2016-03-27T06:36:29.504Z,250
2016-03-27T06:37:29.507Z,290
2016-03-27T06:38:29.526Z,310
2016-03-27T06:39:29.543Z,310
2016-03-27T06:40:29.562Z,230
2016-03-27T06:41:29.581Z,205
2016-03-27T06:42:29.598Z,240
2016-03-27T06:43:29.634Z,205
2016-03-27T06:44:29.636Z,280
2016-03-27T06:45:29.607Z,455
2016-03-27T06:46:29.625Z,565
2016-03-27T06:47:29.659Z,840
2016-03-27T06:48:29.647Z,1045
2016-03-27T06:49:29.665Z,1350
2016-03-27T06:50:29.698Z,1390
2016-03-27T06:51:29.686Z,735
2016-03-27T06:52:29.703Z,330
2016-03-27T06:53:29.738Z,240
2016-03-27T06:54:29.755Z,230
2016-03-27T06:55:29.759Z,270
2016-03-27T06:56:29.793Z,260
2016-03-27T06:57:29.795Z,250
2016-03-27T06:58:29.845Z,265
2016-03-27T06:59:29.816Z,285
2016-03-27T07:00:29.835Z,290
2016-03-27T07:01:29.869Z,310
2016-03-27T07:02:29.855Z,325
2016-03-27T07:03:29.890Z,335
2016-03-27T07:04:29.924Z,550
2016-03-27T07:05:29.988Z,1050
2016-03-27T07:06:29.945Z,1180
2016-03-27T07:07:29.963Z,1245
2016-03-27T07:08:29.982Z,1210
2016-03-27T07:09:30.015Z,945
2016-03-27T07:10:30.048Z,530
2016-03-27T07:11:30.068Z,295
2016-03-27T07:12:30.086Z,740
2016-03-27T07:13:30.134Z,760
2016-03-27T07:14:30.107Z,700
2016-03-27T07:15:30.125Z,515
2016-03-27T07:16:30.128Z,645
2016-03-27T07:17:30.178Z,755
2016-03-27T07:18:30.195Z,880
2016-03-27T07:19:30.214Z,430
2016-03-27T07:20:30.217Z,425
2016-03-27T07:21:30.266Z,1055
2016-03-27T07:22:30.269Z,975
2016-03-27T07:23:30.303Z,650
2016-03-27T07:24:30.322Z,685
2016-03-27T07:25:30.355Z,875
2016-03-27T07:26:30.358Z,1370
2016-03-27T07:27:30.377Z,1415
2016-03-27T07:28:30.411Z,1480
2016-03-27T07:29:30.271Z,1420
2016-03-27T07:30:30.431Z,1185
2016-03-27T07:31:30.449Z,1430
2016-03-27T07:32:30.468Z,1430
2016-03-27T07:33:30.502Z,1440
2016-03-27T07:34:30.520Z,1590
2016-03-27T07:35:30.554Z,1285
2016-03-27T07:36:30.572Z,1480
2016-03-27T07:37:30.621Z,1205
2016-03-27T07:38:30.640Z,800
2016-03-27T07:39:30.659Z,1315
2016-03-27T07:40:30.676Z,1290
2016-03-27T07:41:30.711Z,790
2016-03-27T07:42:30.557Z,385
2016-03-27T07:43:30.778Z,285
2016-03-27T07:44:30.766Z,280
2016-03-27T07:45:30.784Z,265
2016-03-27T07:46:30.802Z,250
2016-03-27T07:47:30.820Z,250
2016-03-27T07:48:30.854Z,255
2016-03-27T07:49:30.904Z,250
2016-03-27T07:50:30.906Z,225
2016-03-27T07:51:30.941Z,205
2016-03-27T07:52:30.975Z,220
2016-03-27T07:53:30.977Z,215
2016-03-27T07:54:31.027Z,220
2016-03-27T07:55:31.045Z,215
2016-03-27T07:56:31.047Z,220
2016-03-27T07:57:31.083Z,220
2016-03-27T07:58:31.100Z,230
2016-03-27T07:59:31.243Z,235
2016-03-27T08:00:31.153Z,245
2016-03-27T08:01:31.171Z,255
2016-03-27T08:02:31.204Z,245
2016-03-27T08:03:31.223Z,250
2016-03-27T08:04:31.257Z,240
2016-03-27T08:05:31.306Z,250
2016-03-27T08:06:31.169Z,280
2016-03-27T08:07:31.359Z,255
2016-03-27T08:08:31.204Z,275
2016-03-27T08:09:31.396Z,345
2016-03-27T08:10:31.382Z,350
2016-03-27T08:11:31.415Z,340
2016-03-27T08:12:31.435Z,375
2016-03-27T08:13:31.468Z,375
2016-03-27T08:14:31.503Z,345
2016-03-27T08:15:31.506Z,335
2016-03-27T08:16:31.523Z,325
2016-03-27T08:17:31.573Z,320
2016-03-27T08:18:31.592Z,370
2016-03-27T08:19:31.609Z,455
2016-03-27T08:20:31.659Z,505
2016-03-27T08:21:31.693Z,480
2016-03-27T08:22:31.728Z,395
2016-03-27T08:23:31.730Z,440
2016-03-27T08:24:31.748Z,480
2016-03-27T08:25:31.782Z,430
2016-03-27T08:26:31.800Z,445
2016-03-27T08:27:31.819Z,465
2016-03-27T08:28:31.868Z,475
2016-03-27T08:29:31.871Z,470
2016-03-27T08:30:31.874Z,515
2016-03-27T08:31:31.955Z,605
2016-03-27T08:32:31.957Z,425
2016-03-27T08:33:31.975Z,400
2016-03-27T08:34:31.994Z,340
2016-03-27T08:35:32.027Z,340
2016-03-27T08:36:32.062Z,315
2016-03-27T08:37:32.096Z,275
2016-03-27T08:38:32.113Z,260
2016-03-27T08:39:32.133Z,250
2016-03-27T08:40:32.151Z,230
2016-03-27T08:41:32.168Z,230
2016-03-27T08:42:32.203Z,240
2016-03-27T08:43:32.237Z,240
2016-03-27T08:44:32.254Z,235
2016-03-27T08:45:32.289Z,240
2016-03-27T08:46:32.307Z,265
2016-03-27T08:47:32.341Z,265
2016-03-27T08:48:32.360Z,260
2016-03-27T08:49:32.378Z,285
2016-03-27T08:50:32.427Z,320
2016-03-27T08:51:32.415Z,280
2016-03-27T08:52:32.480Z,300
2016-03-27T08:53:32.466Z,265
2016-03-27T08:54:32.548Z,245
2016-03-27T08:55:32.519Z,240
2016-03-27T08:56:32.553Z,230
2016-03-27T08:57:32.572Z,265
2016-03-27T08:58:32.636Z,265
2016-03-27T08:59:32.327Z,275
2016-03-27T09:00:33.001Z,310
2016-03-27T09:01:33.035Z,345
2016-03-27T09:02:32.897Z,405
2016-03-27T09:03:32.712Z,445
2016-03-27T09:04:32.763Z,405
2016-03-27T09:05:32.780Z,370
2016-03-27T09:06:32.799Z,310
2016-03-27T09:07:32.846Z,355
2016-03-27T09:08:32.974Z,505
2016-03-27T09:09:32.555Z,650
2016-03-27T09:10:32.901Z,695
2016-03-27T09:11:32.904Z,605
2016-03-27T09:12:32.938Z,610
2016-03-27T09:13:32.972Z,950
2016-03-27T09:14:32.990Z,940
2016-03-27T09:15:33.024Z,660
2016-03-27T09:16:33.043Z,405
2016-03-27T09:17:33.091Z,285
2016-03-27T09:18:33.110Z,265
2016-03-27T09:19:33.144Z,240
2016-03-27T09:20:33.162Z,210
2016-03-27T09:21:33.166Z,195
2016-03-27T09:22:33.199Z,200
2016-03-27T09:23:33.244Z,195
2016-03-27T09:24:33.235Z,195
2016-03-27T09:25:33.288Z,185
2016-03-27T09:26:33.263Z,185
2016-03-27T09:27:33.270Z,180
2016-03-27T09:28:33.295Z,160
2016-03-27T09:29:33.294Z,160
2016-03-27T09:30:33.339Z,165
2016-03-27T09:31:33.368Z,160
2016-03-27T09:32:33.398Z,150
2016-03-27T09:33:33.413Z,145
2016-03-27T09:34:33.476Z,145
2016-03-27T09:35:33.509Z,145
2016-03-27T09:36:33.495Z,150
2016-03-27T09:37:33.496Z,165
2016-03-27T09:38:33.545Z,200
2016-03-27T09:39:33.547Z,225
2016-03-27T09:40:33.611Z,265
2016-03-27T09:41:33.599Z,255
2016-03-27T09:42:33.615Z,310
2016-03-27T09:43:33.633Z,360
2016-03-27T09:44:33.652Z,410
2016-03-27T09:45:33.700Z,510
2016-03-27T09:46:33.578Z,295
2016-03-27T09:47:33.768Z,230
2016-03-27T09:48:33.754Z,190
2016-03-27T09:49:33.804Z,190
2016-03-27T09:50:33.807Z,190
2016-03-27T09:51:33.826Z,175
2016-03-27T09:52:33.859Z,170
2016-03-27T09:53:33.893Z,180
2016-03-27T09:54:33.927Z,175
2016-03-27T09:55:33.946Z,195
2016-03-27T09:56:33.948Z,195
2016-03-27T09:57:33.966Z,190
2016-03-27T09:58:34.001Z,180
2016-03-27T09:59:34.019Z,195
2016-03-27T10:00:34.052Z,205
2016-03-27T10:01:34.072Z,245
2016-03-27T10:02:34.120Z,215
2016-03-27T10:03:34.108Z,240
2016-03-27T10:04:34.158Z,250
2016-03-27T10:05:34.191Z,265
2016-03-27T10:06:34.178Z,305
2016-03-27T10:07:34.213Z,320
2016-03-27T10:08:34.230Z,330
2016-03-27T10:09:34.280Z,300
2016-03-27T10:10:34.533Z,335
2016-03-27T10:11:34.332Z,325
2016-03-27T10:12:34.335Z,300
2016-03-27T10:13:34.369Z,355
2016-03-27T10:14:34.371Z,290
2016-03-27T10:15:34.405Z,360
2016-03-27T10:16:34.268Z,425
2016-03-27T10:17:34.473Z,400
2016-03-27T10:18:34.507Z,420
2016-03-27T10:19:34.541Z,350
2016-03-27T10:20:34.543Z,295
2016-03-27T10:21:34.563Z,285
2016-03-27T10:22:34.596Z,310
2016-03-27T10:23:34.645Z,315
2016-03-27T10:24:34.649Z,310
2016-03-27T10:25:34.682Z,295
2016-03-27T10:26:34.700Z,290
2016-03-27T10:27:34.735Z,245
2016-03-27T10:28:34.769Z,280
2016-03-27T10:29:34.787Z,280
2016-03-27T10:30:34.820Z,255
2016-03-27T10:31:34.823Z,240
2016-03-27T10:32:34.872Z,225
2016-03-27T10:33:34.892Z,220
2016-03-27T10:34:34.925Z,195
2016-03-27T10:35:34.958Z,195
2016-03-27T10:36:34.978Z,195
2016-03-27T10:37:35.011Z,210
2016-03-27T10:38:35.046Z,220
2016-03-27T10:39:35.049Z,245
2016-03-27T10:40:35.097Z,245
2016-03-27T10:41:35.116Z,250
2016-03-27T10:42:35.182Z,250
2016-03-27T10:43:35.168Z,255
2016-03-27T10:44:35.233Z,235
2016-03-27T10:45:35.783Z,245
2016-03-27T10:46:35.364Z,245
2016-03-27T10:47:36.024Z,240
2016-03-27T10:48:35.823Z,245
2016-03-27T10:49:35.403Z,230
2016-03-27T10:50:35.421Z,245
2016-03-27T10:51:36.331Z,230
2016-03-27T10:52:35.489Z,230
2016-03-27T10:53:35.570Z,225
2016-03-27T10:54:35.526Z,215
2016-03-27T10:55:35.482Z,210
2016-03-27T10:56:35.547Z,210
2016-03-27T10:57:35.565Z,210
2016-03-27T10:58:35.631Z,195
2016-03-27T10:59:35.648Z,200
2016-03-27T11:00:35.636Z,185
2016-03-27T11:01:35.686Z,170
2016-03-27T11:02:35.719Z,160
2016-03-27T11:03:35.723Z,160
2016-03-27T11:04:35.772Z,160
2016-03-27T11:05:35.649Z,155
2016-03-27T11:06:36.075Z,155
2016-03-27T11:07:35.780Z,160
2016-03-27T11:08:35.891Z,155
2016-03-27T11:09:35.925Z,155
2016-03-27T11:10:35.741Z,160
2016-03-27T11:11:35.963Z,165
2016-03-27T11:12:35.980Z,165
2016-03-27T11:13:35.858Z,160
2016-03-27T11:14:36.096Z,165
2016-03-27T11:15:36.051Z,170
2016-03-27T11:16:36.148Z,145
2016-03-27T11:17:36.182Z,160
2016-03-27T11:18:36.137Z,175
2016-03-27T11:19:36.157Z,195
2016-03-27T11:20:36.190Z,190
2016-03-27T11:21:36.207Z,195
2016-03-27T11:22:36.258Z,195
2016-03-27T11:23:36.307Z,210
2016-03-27T11:24:36.481Z,195
2016-03-27T11:25:36.297Z,195
2016-03-27T11:26:36.315Z,165
2016-03-27T11:27:50.506Z,195
2016-03-27T11:28:36.492Z,205
2016-03-27T11:29:36.433Z,195
2016-03-27T11:30:36.451Z,200
2016-03-27T11:31:36.469Z,220
2016-03-27T11:32:36.534Z,225
2016-03-27T11:33:36.522Z,240
2016-03-27T11:34:36.572Z,240
2016-03-27T11:35:36.559Z,230
2016-03-27T11:36:36.608Z,235
2016-03-27T11:37:36.610Z,235
2016-03-27T11:38:36.644Z,145
2016-03-27T11:39:36.788Z,220
2016-03-27T11:40:36.853Z,195
2016-03-27T11:41:37.433Z,230
2016-03-27T11:42:36.749Z,200
2016-03-27T11:43:36.783Z,170
2016-03-27T11:44:36.848Z,185
2016-03-27T11:45:36.897Z,170
2016-03-27T11:46:36.869Z,200
2016-03-27T11:47:36.902Z,135
2016-03-27T11:48:36.796Z,120
2016-03-27T11:49:37.112Z,175
2016-03-27T11:50:36.974Z,215
2016-03-27T11:51:37.038Z,215
2016-03-27T11:52:37.198Z,210
2016-03-27T11:53:37.123Z,135
2016-03-27T11:54:37.125Z,140
2016-03-27T11:55:37.081Z,210
2016-03-27T11:56:37.099Z,225
2016-03-27T11:57:37.149Z,210
2016-03-27T11:58:37.229Z,135
2016-03-27T11:59:37.170Z,215
2016-03-27T12:00:37.204Z,130
2016-03-27T12:01:37.237Z,190
2016-03-27T12:02:37.239Z,220
2016-03-27T12:03:37.368Z,155
2016-03-27T12:04:37.339Z,145
2016-03-27T12:05:37.358Z,195
2016-03-27T12:06:37.361Z,120
2016-03-27T12:07:37.425Z,120
2016-03-27T12:08:37.397Z,110
2016-03-27T12:09:37.478Z,110
2016-03-27T12:10:37.465Z,100
2016-03-27T12:11:37.546Z,100
2016-03-27T12:12:37.564Z,120
2016-03-27T12:13:37.566Z,90
2016-03-27T12:14:37.569Z,85
2016-03-27T12:15:37.602Z,80
2016-03-27T12:16:37.638Z,85
2016-03-27T12:17:37.655Z,85
2016-03-27T12:18:37.721Z,85
2016-03-27T12:19:37.707Z,90
2016-03-27T12:20:37.727Z,90
2016-03-27T12:21:37.791Z,115
2016-03-27T12:22:37.981Z,95
2016-03-27T12:23:37.829Z,90
2016-03-27T12:24:37.877Z,80
2016-03-27T12:25:37.911Z,75
2016-03-27T12:26:37.882Z,75
2016-03-27T12:27:38.010Z,75
2016-03-27T12:28:37.935Z,70
2016-03-27T12:29:37.969Z,70
2016-03-27T12:30:37.987Z,70
2016-03-27T12:31:37.990Z,65
2016-03-27T12:32:38.023Z,65
2016-03-27T12:33:38.151Z,60
2016-03-27T12:34:38.108Z,60
2016-03-27T12:35:37.986Z,55
2016-03-27T12:36:38.159Z,50
2016-03-27T12:37:38.162Z,50
2016-03-27T12:38:38.181Z,50
2016-03-27T12:39:38.214Z,45
2016-03-27T12:40:38.249Z,45
2016-03-27T12:41:38.282Z,45
2016-03-27T12:42:38.255Z,50
2016-03-27T12:43:38.288Z,50
2016-03-27T12:44:38.305Z,50
2016-03-27T12:45:38.340Z,55
2016-03-27T12:46:38.390Z,60
2016-03-27T12:47:38.424Z,115
2016-03-27T12:48:38.441Z,65
2016-03-27T12:49:38.430Z,65
2016-03-27T12:50:38.479Z,70
2016-03-27T12:51:38.481Z,70
2016-03-27T12:52:38.500Z,75
2016-03-27T12:53:38.518Z,70
2016-03-27T12:54:38.568Z,75
2016-03-27T12:55:38.554Z,80
2016-03-27T12:56:38.604Z,85
2016-03-27T12:57:38.638Z,80
2016-03-27T12:58:38.640Z,80
2016-03-27T12:59:38.675Z,70
2016-03-27T13:00:38.724Z,65
2016-03-27T13:01:38.711Z,55
2016-03-27T13:02:38.698Z,50
2016-03-27T13:03:38.795Z,45
2016-03-27T13:04:38.751Z,45
2016-03-27T13:05:38.769Z,40
2016-03-27T13:06:38.850Z,40
2016-03-27T13:07:38.821Z,40
2016-03-27T13:08:38.870Z,35
2016-03-27T13:09:39.077Z,35
2016-03-27T13:10:38.876Z,35
2016-03-27T13:11:38.910Z,35
2016-03-27T13:12:38.975Z,30
2016-03-27T13:13:38.822Z,30
2016-03-27T13:14:39.043Z,30
2016-03-27T13:15:39.093Z,30
2016-03-27T13:16:39.064Z,30
2016-03-27T13:17:39.036Z,35
2016-03-27T13:18:39.070Z,35
2016-03-27T13:19:39.104Z,40
2016-03-27T13:20:39.122Z,45
2016-03-27T13:21:38.984Z,45
2016-03-27T13:22:39.173Z,50
2016-03-27T13:23:39.193Z,50
2016-03-27T13:24:39.210Z,55
2016-03-27T13:25:39.245Z,50
2016-03-27T13:26:39.248Z,45
2016-03-27T13:27:39.266Z,40
2016-03-27T13:28:39.284Z,35
2016-03-27T13:29:39.364Z,30
2016-03-27T13:30:39.337Z,30
2016-03-27T13:31:39.339Z,25
2016-03-27T13:32:39.373Z,20
2016-03-27T13:33:39.392Z,20
2016-03-27T13:34:39.378Z,15
2016-03-27T13:35:39.428Z,15
2016-03-27T13:36:39.477Z,15
2016-03-27T13:37:39.480Z,10
2016-03-27T13:38:39.483Z,10
2016-03-27T13:39:39.345Z,10
2016-03-27T13:40:39.519Z,10
2016-03-27T13:41:39.553Z,10
2016-03-27T13:42:39.572Z,15
2016-03-27T13:43:39.464Z,15
2016-03-27T13:44:39.624Z,15
2016-03-27T13:45:39.627Z,15
2016-03-27T13:46:39.644Z,15
2016-03-27T13:47:39.664Z,20
2016-03-27T13:48:39.697Z,20
2016-03-27T13:49:39.715Z,20
2016-03-27T13:50:39.733Z,20
2016-03-27T13:51:39.767Z,20
2016-03-27T13:52:39.771Z,20
2016-03-27T13:53:39.788Z,20
2016-03-27T13:54:39.823Z,15
2016-03-27T13:55:39.841Z,15
2016-03-27T13:56:39.860Z,10
2016-03-27T13:57:39.862Z,10
2016-03-27T13:58:39.942Z,10
2016-03-27T13:59:39.899Z,10
2016-03-27T14:00:39.932Z,10
2016-03-27T14:01:39.951Z,10
2016-03-27T14:02:40.000Z,10
2016-03-27T14:03:39.972Z,10
2016-03-27T14:04:39.990Z,10
2016-03-27T14:05:40.055Z,10
2016-03-27T14:06:40.073Z,10
2016-03-27T14:07:40.076Z,15
2016-03-27T14:08:40.079Z,15
2016-03-27T14:09:40.097Z,15
2016-03-27T14:10:40.131Z,15
2016-03-27T14:11:40.197Z,15
2016-03-27T14:12:40.214Z,15
2016-03-27T14:13:40.217Z,20